Time;durP1;ratioP1;P1;durP2;ratioP2;P2;SDS_P1;SDS_P2;PMS_P1;PMS_P2;Temp;Humidity;BMP_temperature;BMP_pressure;BME280_temperature;BME280_humidity;BME280_pressure;Samples;Min_cycle;Max_cycle;Signal;HPM_P1;HPM_P2
2021/04/03 00:33:40;;;;;;;58.98;28.27;;;;;;;3.43;64.84;98421.05;2259336;79;22134;-81
2021/04/03 00:36:43;;;;;;;54.50;26.48;;;;;;;3.35;64.72;98424.00;2226270;80;21610;-81
2021/04/03 00:39:44;;;;;;;52.65;28.38;;;;;;;3.33;64.83;98425.92;2226322;80;21772;-80
2021/04/03 00:42:46;;;;;;;52.38;28.20;;;;;;;3.33;64.92;98425.44;2225980;80;21150;-80
2021/04/03 00:45:48;;;;;;;49.27;27.02;;;;;;;3.33;65.02;98428.03;2226214;80;21300;-81
2021/04/03 00:48:51;;;;;;;51.20;25.45;;;;;;;3.31;64.93;98421.38;2226151;80;21616;-81
2021/04/03 00:51:53;;;;;;;52.58;28.55;;;;;;;3.31;64.94;98418.30;2226238;80;21787;-81
2021/04/03 00:54:55;;;;;;;55.58;27.22;;;;;;;3.31;65.00;98417.48;2226773;80;21570;-80
2021/04/03 00:57:57;;;;;;;51.35;26.62;;;;;;;3.30;65.12;98419.27;2226002;80;21273;-80
2021/04/03 01:00:59;;;;;;;45.28;26.68;;;;;;;3.32;65.12;98421.23;2226182;80;21689;-79
2021/04/03 01:04:01;;;;;;;42.73;23.55;;;;;;;3.31;65.11;98412.31;2226202;80;21261;-80
2021/04/03 01:07:03;;;;;;;52.88;26.23;;;;;;;3.30;65.21;98412.79;2226128;80;21114;-80
2021/04/03 01:10:05;;;;;;;62.27;31.42;;;;;;;3.27;65.15;98405.77;2226292;80;21289;-80
2021/04/03 01:13:06;;;;;;;88.85;38.38;;;;;;;3.26;65.18;98398.48;2226167;80;21764;-80
2021/04/03 01:16:08;;;;;;;83.05;34.73;;;;;;;3.25;65.20;98396.86;2226654;80;21296;-80
2021/04/03 01:19:10;;;;;;;62.85;29.95;;;;;;;3.29;65.28;98396.09;2226205;80;21313;-81
2021/04/03 01:22:12;;;;;;;50.78;27.00;;;;;;;3.35;65.32;98402.81;2226154;80;21150;-81
2021/04/03 01:25:14;;;;;;;65.57;28.12;;;;;;;3.38;65.25;98401.70;2226020;80;21186;-80
2021/04/03 01:28:15;;;;;;;51.08;23.77;;;;;;;3.41;65.35;98404.03;2226512;80;21298;-80
2021/04/03 01:31:17;;;;;;;62.90;28.00;;;;;;;3.45;65.39;98401.97;2226207;80;21878;-81
2021/04/03 01:34:19;;;;;;;46.42;22.73;;;;;;;3.48;65.47;98410.77;2226852;80;21281;-81
2021/04/03 01:37:21;;;;;;;49.83;25.57;;;;;;;3.50;65.44;98406.25;2226899;80;21134;-81
2021/04/03 01:40:24;;;;;;;59.27;25.08;;;;;;;3.55;65.56;98401.45;2226898;80;21293;-81
2021/04/03 01:43:26;;;;;;;52.73;25.88;;;;;;;3.60;65.45;98402.66;2226485;80;21312;-79
2021/04/03 01:46:28;;;;;;;61.70;28.30;;;;;;;3.67;65.44;98387.38;2226157;80;21289;-80
2021/04/03 01:49:29;;;;;;;70.22;30.90;;;;;;;3.79;65.43;98387.99;2226036;80;21705;-79
2021/04/03 01:52:32;;;;;;;66.87;29.63;;;;;;;3.85;65.61;98383.06;2225940;80;21575;-79
2021/04/03 01:55:34;;;;;;;60.30;27.82;;;;;;;3.94;65.57;98391.26;2225902;80;21190;-79
2021/04/03 01:58:36;;;;;;;63.17;29.18;;;;;;;3.98;65.38;98387.88;2226125;80;21297;-78
2021/04/03 02:01:38;;;;;;;60.15;26.68;;;;;;;4.02;65.27;98389.69;2225705;80;21318;-79
2021/04/03 02:04:41;;;;;;;53.65;25.35;;;;;;;4.04;65.19;98389.91;2225429;80;21166;-79
2021/04/03 02:07:43;;;;;;;70.50;31.12;;;;;;;4.10;65.23;98384.11;2226002;80;21662;-81
2021/04/03 02:10:45;;;;;;;64.85;26.10;;;;;;;4.15;65.18;98383.69;2225388;80;21122;-79
2021/04/03 02:13:47;;;;;;;49.03;23.83;;;;;;;4.16;65.14;98380.14;2225463;80;21158;-80
2021/04/03 02:16:48;;;;;;;55.05;26.37;;;;;;;4.13;65.27;98383.03;2225466;80;21165;-79
2021/04/03 02:19:51;;;;;;;59.75;26.85;;;;;;;4.13;65.32;98382.55;2225915;80;21131;-78
2021/04/03 02:22:52;;;;;;;50.03;25.50;;;;;;;4.12;65.41;98386.59;2225677;80;21684;-79
2021/04/03 02:25:55;;;;;;;37.78;20.77;;;;;;;4.12;65.55;98383.99;2225892;80;21304;-80
2021/04/03 02:28:58;;;;;;;40.15;23.40;;;;;;;4.15;65.55;98392.77;2225689;80;21686;-78
2021/04/03 02:32:00;;;;;;;40.17;24.52;;;;;;;4.11;65.52;98398.70;2225839;80;21162;-79
2021/04/03 02:35:02;;;;;;;39.78;23.40;;;;;;;4.11;65.45;98397.41;2225838;80;21610;-80
2021/04/03 02:38:03;;;;;;;39.63;23.67;;;;;;;4.14;65.37;98397.61;2225964;80;21692;-80
2021/04/03 02:41:06;;;;;;;44.80;24.98;;;;;;;4.15;65.37;98397.46;2226020;80;21265;-79
2021/04/03 02:44:08;;;;;;;45.58;25.08;;;;;;;4.13;65.23;98393.39;2225824;80;21700;-79
2021/04/03 02:47:10;;;;;;;46.25;25.02;;;;;;;4.06;65.37;98394.45;2225811;80;21607;-78
2021/04/03 02:50:12;;;;;;;45.28;23.90;;;;;;;4.00;65.42;98395.84;2225783;80;21159;-79
2021/04/03 02:53:14;;;;;;;54.35;28.15;;;;;;;3.91;65.52;98382.94;2225714;80;21181;-80
2021/04/03 02:56:16;;;;;;;53.60;26.57;;;;;;;3.78;65.72;98382.00;2225862;80;21736;-80
2021/04/03 02:59:18;;;;;;;43.20;24.40;;;;;;;3.64;65.91;98381.17;2226115;80;21304;-79
2021/04/03 03:02:20;;;;;;;51.95;29.63;;;;;;;3.50;66.18;98387.66;2225860;80;21307;-81
2021/04/03 03:05:25;;;;;;;62.45;30.80;;;;;;;3.42;66.31;98382.37;2225790;80;21609;-80
2021/04/03 03:08:26;;;;;;;61.18;31.82;;;;;;;3.35;66.47;98376.13;2226327;80;21591;-78
2021/04/03 03:11:28;;;;;;;75.40;35.17;;;;;;;3.26;66.56;98372.61;2225729;80;21194;-79
2021/04/03 03:14:30;;;;;;;80.65;36.28;;;;;;;3.21;66.75;98374.01;2225744;80;21152;-81
2021/04/03 03:17:32;;;;;;;78.75;37.80;;;;;;;3.17;67.00;98373.45;2226033;80;21535;-79
2021/04/03 03:20:33;;;;;;;79.90;36.53;;;;;;;3.16;67.21;98369.24;2225964;80;21130;-79
2021/04/03 03:23:35;;;;;;;97.00;49.25;;;;;;;3.13;67.20;98365.65;2197083;80;21119;-79
2021/04/03 03:26:37;;;;;;;99.32;44.33;;;;;;;3.07;67.39;98370.90;2225403;80;21135;-79
2021/04/03 03:29:39;;;;;;;67.65;32.90;;;;;;;2.99;67.54;98367.38;2225753;80;21128;-79
2021/04/03 03:32:42;;;;;;;71.10;32.48;;;;;;;2.93;67.83;98376.53;2218637;80;21313;-79
2021/04/03 03:35:44;;;;;;;59.93;31.42;;;;;;;2.85;67.87;98368.17;2208784;81;21284;-78
2021/04/03 03:38:45;;;;;;;62.60;31.57;;;;;;;2.80;68.16;98363.06;2208627;81;21718;-79
2021/04/03 03:41:48;;;;;;;67.00;30.72;;;;;;;2.77;68.31;98366.75;2208474;81;21284;-79
2021/04/03 03:44:51;;;;;;;65.35;32.48;;;;;;;2.74;68.56;98368.77;2208511;81;21171;-80
2021/04/03 03:47:54;;;;;;;61.20;31.30;;;;;;;2.71;68.66;98366.00;2208719;81;21301;-80
2021/04/03 03:50:56;;;;;;;61.37;32.25;;;;;;;2.73;68.86;98368.44;2208473;81;21292;-80
2021/04/03 03:53:58;;;;;;;50.58;28.32;;;;;;;2.72;68.90;98372.80;2208933;81;21261;-81
2021/04/03 03:56:59;;;;;;;59.30;31.70;;;;;;;2.70;69.04;98366.95;2208461;81;21284;-81
2021/04/03 04:00:01;;;;;;;41.28;23.25;;;;;;;2.66;69.25;98367.38;2208827;81;21281;-81
2021/04/03 04:03:03;;;;;;;57.38;28.42;;;;;;;2.64;70.10;98369.27;2209317;81;21246;-79
2021/04/03 04:06:05;;;;;;;54.03;29.67;;;;;;;2.61;69.73;98369.55;2208802;81;21099;-80
2021/04/03 04:09:07;;;;;;;51.37;28.98;;;;;;;2.59;70.22;98369.70;2208788;81;21281;-80
2021/04/03 04:12:09;;;;;;;54.10;30.72;;;;;;;2.61;69.93;98374.72;2208333;81;21134;-80
2021/04/03 04:15:11;;;;;;;61.58;31.00;;;;;;;2.61;69.99;98376.83;2208707;81;21273;-80
2021/04/03 04:18:13;;;;;;;62.83;32.83;;;;;;;2.66;70.08;98370.78;2208469;81;21277;-80
2021/04/03 04:21:15;;;;;;;65.32;33.35;;;;;;;2.68;70.20;98379.21;2208474;81;21301;-81
2021/04/03 04:24:16;;;;;;;55.63;31.82;;;;;;;2.78;70.43;98376.61;2208815;81;21305;-81
2021/04/03 04:27:18;;;;;;;58.68;30.48;;;;;;;2.85;70.34;98379.80;2208694;81;21718;-80
2021/04/03 04:30:20;;;;;;;48.92;27.35;;;;;;;2.96;70.33;98381.41;2208125;81;21317;-80
2021/04/03 04:33:23;;;;;;;49.73;27.10;;;;;;;3.01;70.28;98377.09;2208144;80;21306;-81
2021/04/03 04:36:25;;;;;;;52.17;29.15;;;;;;;3.05;70.22;98382.34;2208272;81;21179;-80
2021/04/03 04:39:27;;;;;;;55.00;30.25;;;;;;;3.08;70.43;98384.17;2208703;81;21410;-80
2021/04/03 04:42:30;;;;;;;56.15;32.03;;;;;;;3.16;70.44;98384.77;2208775;81;21273;-80
2021/04/03 04:45:32;;;;;;;52.88;29.87;;;;;;;3.21;70.47;98389.05;2208754;81;21293;-81
2021/04/03 04:48:33;;;;;;;45.38;26.42;;;;;;;3.29;70.59;98383.99;2208820;81;21138;-82
2021/04/03 04:51:35;;;;;;;49.80;27.77;;;;;;;3.36;70.95;98387.63;2208587;81;21253;-79
2021/04/03 04:54:37;;;;;;;54.67;27.80;;;;;;;3.38;70.62;98395.23;2208714;81;21273;-81
2021/04/03 04:57:38;;;;;;;48.33;27.85;;;;;;;3.42;70.63;98397.42;2208825;81;21309;-81
2021/04/03 05:00:42;;;;;;;47.67;26.45;;;;;;;3.48;70.72;98397.82;2208250;81;21183;-78
2021/04/03 05:03:45;;;;;;;50.25;28.02;;;;;;;3.54;70.82;98397.23;2208411;81;21167;-82
2021/04/03 05:06:47;;;;;;;53.90;29.82;;;;;;;3.55;71.27;98405.33;2208567;81;21269;-83
2021/04/03 05:09:49;;;;;;;51.13;28.57;;;;;;;3.61;71.10;98406.88;2208364;81;21309;-80
2021/04/03 05:12:51;;;;;;;54.13;29.98;;;;;;;3.66;71.14;98406.47;2208594;81;21293;-81
2021/04/03 05:15:53;;;;;;;42.05;24.80;;;;;;;3.73;71.31;98407.50;2208788;81;21124;-80
2021/04/03 05:18:54;;;;;;;53.73;29.90;;;;;;;3.78;71.49;98410.97;2208562;81;21240;-80
2021/04/03 05:21:58;;;;;;;51.58;30.32;;;;;;;3.83;71.47;98411.34;2208629;81;21131;-82
2021/04/03 05:24:59;;;;;;;52.45;29.57;;;;;;;3.94;72.35;98415.87;2208857;81;21551;-79
2021/04/03 05:28:01;;;;;;;52.00;29.77;;;;;;;4.03;71.70;98412.89;2208939;81;21290;-80
2021/04/03 05:31:03;;;;;;;46.85;28.10;;;;;;;4.10;71.93;98419.58;2208688;81;21710;-80
2021/04/03 05:34:05;;;;;;;46.00;28.55;;;;;;;4.13;72.62;98418.02;2208845;80;21269;-79
2021/04/03 05:37:07;;;;;;;45.25;27.95;;;;;;;4.12;72.12;98424.97;2208923;81;21701;-80
2021/04/03 05:40:09;;;;;;;44.50;26.97;;;;;;;4.12;72.65;98426.27;2208691;81;21177;-80
2021/04/03 05:43:10;;;;;;;53.75;30.10;;;;;;;4.09;72.71;98429.61;2208902;81;21313;-82
2021/04/03 05:46:12;;;;;;;56.13;32.15;;;;;;;4.10;72.81;98428.16;2208610;81;21757;-80
2021/04/03 05:49:14;;;;;;;46.40;26.75;;;;;;;4.14;73.61;98431.30;2208668;81;22198;-81
2021/04/03 05:52:15;;;;;;;48.58;28.75;;;;;;;4.17;73.39;98431.00;2208476;81;21246;-81
2021/04/03 05:55:17;;;;;;;47.75;29.37;;;;;;;4.19;73.39;98440.73;2208704;81;21147;-81
2021/04/03 05:58:19;;;;;;;52.78;29.95;;;;;;;4.18;73.40;98439.92;2208628;81;21692;-80
2021/04/03 06:01:21;;;;;;;51.10;28.92;;;;;;;4.16;74.13;98445.73;2208628;81;21591;-80
2021/04/03 06:04:24;;;;;;;47.73;29.52;;;;;;;4.11;73.83;98448.41;2208930;81;21308;-80
2021/04/03 06:07:25;;;;;;;45.20;28.65;;;;;;;4.11;74.05;98445.82;2208938;81;21281;-81
2021/04/03 06:10:27;;;;;;;50.05;28.38;;;;;;;4.12;74.21;98452.18;2208981;81;21269;-80
2021/04/03 06:13:29;;;;;;;38.38;24.65;;;;;;;4.15;74.52;98456.25;2208784;81;21312;-80
2021/04/03 06:16:31;;;;;;;44.70;25.55;;;;;;;4.17;75.23;98455.62;2208993;81;21302;-80
2021/04/03 06:19:35;;;;;;;38.42;21.75;;;;;;;4.17;74.77;98463.39;2208830;81;21301;-79
2021/04/03 06:22:36;;;;;;;31.15;21.07;;;;;;;4.18;74.95;98461.95;2208701;81;21305;-80
2021/04/03 06:25:37;;;;;;;24.92;17.07;;;;;;;4.19;75.39;98467.46;2208817;81;21130;-80
2021/04/03 06:28:39;;;;;;;24.47;18.23;;;;;;;4.11;76.44;98465.25;2208951;81;21697;-79
2021/04/03 06:31:41;;;;;;;22.62;15.90;;;;;;;4.11;75.43;98471.25;2208694;81;21575;-80
2021/04/03 06:34:43;;;;;;;17.00;12.88;;;;;;;4.15;75.74;98468.73;2208640;80;21266;-79
2021/04/03 06:37:45;;;;;;;16.40;13.62;;;;;;;4.16;76.42;98470.35;2208709;81;21127;-79
2021/04/03 06:40:46;;;;;;;18.02;12.93;;;;;;;4.22;75.82;98473.67;2208882;81;21139;-81
2021/04/03 06:43:48;;;;;;;15.13;11.25;;;;;;;4.33;75.93;98479.13;2208707;81;21177;-80
2021/04/03 06:46:50;;;;;;;15.85;11.70;;;;;;;4.39;75.97;98477.27;2209143;81;21466;-81
2021/04/03 06:49:51;;;;;;;15.40;11.83;;;;;;;4.39;75.86;98481.60;2208842;81;21272;-86
2021/04/03 06:52:53;;;;;;;13.70;10.60;;;;;;;4.44;76.07;98483.29;2208913;81;21261;-81
2021/04/03 06:55:56;;;;;;;17.75;13.13;;;;;;;4.50;76.12;98485.31;2208785;81;21134;-80
2021/04/03 06:58:58;;;;;;;19.05;15.32;;;;;;;4.58;76.13;98482.80;2208913;81;21301;-79
2021/04/03 07:02:00;;;;;;;18.82;13.72;;;;;;;4.66;75.68;98488.52;2208709;81;21764;-80
2021/04/03 07:05:02;;;;;;;14.73;11.08;;;;;;;4.73;75.76;98490.87;2208528;81;21317;-81
2021/04/03 07:08:04;;;;;;;15.00;10.45;;;;;;;4.79;75.79;98495.48;2209028;81;21128;-84
2021/04/03 07:11:07;;;;;;;14.83;10.35;;;;;;;4.79;75.62;98495.48;2209349;81;21733;-83
2021/04/03 07:14:09;;;;;;;18.77;11.75;;;;;;;4.76;75.72;98496.59;2208603;81;21265;-83
2021/04/03 07:17:11;;;;;;;14.38;10.58;;;;;;;4.80;75.28;98493.21;2208383;81;21281;-83
2021/04/03 07:20:12;;;;;;;15.40;11.20;;;;;;;4.85;74.77;98498.78;2208359;81;21305;-83
2021/04/03 07:23:14;;;;;;;12.10;9.83;;;;;;;4.83;75.10;98494.20;2208481;81;21186;-86
2021/04/03 07:26:16;;;;;;;14.95;12.23;;;;;;;4.92;75.31;98501.09;2208764;81;21162;-86
2021/04/03 07:29:18;;;;;;;12.73;10.18;;;;;;;5.02;75.22;98507.50;2209007;81;21163;-88
2021/04/03 07:32:20;;;;;;;16.65;11.55;;;;;;;5.03;74.35;98514.32;2209300;81;21163;-89
2021/04/03 07:35:21;;;;;;;19.27;14.13;;;;;;;4.96;74.12;98519.31;2224892;80;21571;-85
2021/04/03 07:38:23;;;;;;;15.05;11.60;;;;;;;4.98;74.65;98525.64;2225714;80;21154;-89
2021/04/03 07:41:25;;;;;;;14.23;12.33;;;;;;;4.99;74.62;98525.49;2226219;80;21681;-87
2021/04/03 07:44:27;;;;;;;19.70;13.22;;;;;;;5.06;74.49;98527.83;2226060;80;21264;-84
2021/04/03 07:47:29;;;;;;;13.32;11.22;;;;;;;5.11;74.61;98529.48;2225793;80;21311;-87
2021/04/03 07:50:30;;;;;;;13.40;10.75;;;;;;;5.16;74.01;98529.05;2225808;80;21296;-85
2021/04/03 07:53:32;;;;;;;15.58;11.12;;;;;;;5.15;74.07;98537.80;2225920;80;21146;-85
2021/04/03 07:56:33;;;;;;;17.02;12.35;;;;;;;5.08;74.18;98536.77;2226228;80;21304;-86
2021/04/03 07:59:35;;;;;;;15.95;11.08;;;;;;;5.04;74.40;98540.15;2226053;80;21705;-85
2021/04/03 08:02:37;;;;;;;15.28;11.22;;;;;;;4.98;74.43;98545.92;2225909;80;21485;-90
2021/04/03 08:05:39;;;;;;;17.57;13.20;;;;;;;4.90;74.65;98552.81;2226213;80;21677;-88
2021/04/03 08:08:41;;;;;;;16.30;12.20;;;;;;;4.89;74.80;98553.78;2226202;80;21103;-87
2021/04/03 08:11:42;;;;;;;14.68;11.65;;;;;;;4.81;74.83;98544.94;2197059;80;21618;-91
2021/04/03 08:14:45;;;;;;;14.15;10.68;;;;;;;4.72;75.24;98555.38;2226050;80;21702;-87
2021/04/03 08:17:47;;;;;;;17.55;11.95;;;;;;;4.63;75.48;98548.47;2226348;80;21609;-87
2021/04/03 08:20:49;;;;;;;20.72;14.25;;;;;;;4.57;75.76;98561.53;2225976;80;21150;-88
2021/04/03 08:23:52;;;;;;;17.15;12.33;;;;;;;4.53;76.14;98561.50;2226466;80;21328;-88
2021/04/03 08:26:54;;;;;;;17.27;12.82;;;;;;;4.45;76.56;98562.22;2226335;80;21155;-88
2021/04/03 08:29:55;;;;;;;16.45;11.35;;;;;;;4.38;77.24;98567.63;2225842;80;21162;-87
2021/04/03 08:32:57;;;;;;;17.42;12.30;;;;;;;4.30;77.40;98566.27;2225961;80;21623;-87
2021/04/03 08:36:01;;;;;;;18.37;12.80;;;;;;;4.21;77.94;98563.23;2226679;80;21301;-86
2021/04/03 08:39:03;;;;;;;14.38;10.88;;;;;;;4.17;78.42;98569.16;2226471;80;21153;-84
2021/04/03 08:42:05;;;;;;;23.67;15.43;;;;;;;4.12;78.75;98580.45;2226391;80;21284;-89
2021/04/03 08:45:07;;;;;;;21.75;15.55;;;;;;;4.10;78.60;98583.64;2226330;80;21106;-89
2021/04/03 08:48:09;;;;;;;22.77;15.95;;;;;;;4.10;78.85;98580.23;2226239;80;21161;-88
2021/04/03 08:51:10;;;;;;;21.75;17.07;;;;;;;4.06;78.74;98577.59;2226102;80;21689;-86
2021/04/03 09:23:59;;;;;;;20.25;12.85;;;;;;;3.78;79.47;98629.34;2005273;89;21653;-84
2021/04/03 09:27:11;;;;;;;15.45;10.10;;;;;;;3.76;80.06;98632.55;2250491;79;22880;-83
2021/04/03 09:30:14;;;;;;;13.35;8.75;;;;;;;3.68;80.32;98644.07;2214869;80;21276;-85
2021/04/03 09:33:15;;;;;;;12.88;8.98;;;;;;;3.65;80.28;98642.55;2215053;80;21261;-83
2021/04/03 09:36:18;;;;;;;11.35;7.03;;;;;;;3.60;80.36;98653.00;2214888;80;21280;-85
2021/04/03 09:39:19;;;;;;;16.90;9.50;;;;;;;3.54;80.02;98653.53;2215210;80;21574;-84
2021/04/03 09:42:22;;;;;;;19.57;9.93;;;;;;;3.53;79.77;98660.96;2215006;80;21146;-85
2021/04/03 09:45:23;;;;;;;20.55;13.93;;;;;;;3.49;79.95;98655.73;2214452;80;21268;-83
2021/04/03 09:48:25;;;;;;;23.55;15.45;;;;;;;3.47;79.49;98655.84;2214094;80;21145;-81
2021/04/03 09:51:27;;;;;;;12.73;8.38;;;;;;;3.51;79.86;98667.58;2214487;80;21295;-80
2021/04/03 09:54:29;;;;;;;7.85;7.08;;;;;;;3.51;79.54;98676.64;2214710;80;21605;-83
2021/04/03 09:57:31;;;;;;;5.22;4.47;;;;;;;3.51;79.17;98687.47;2214618;80;21138;-83
2021/04/03 10:00:33;;;;;;;8.45;5.60;;;;;;;3.48;79.58;98692.93;2215636;80;21320;-86
2021/04/03 10:03:35;;;;;;;6.67;5.12;;;;;;;3.47;79.82;98685.61;2215156;80;21178;-91
2021/04/03 10:06:37;;;;;;;4.10;3.75;;;;;;;3.47;79.92;98695.15;2215217;80;21154;-83
2021/04/03 10:09:39;;;;;;;4.87;3.95;;;;;;;3.47;79.86;98704.20;2186237;80;21779;-82
2021/04/03 10:12:40;;;;;;;4.37;3.47;;;;;;;3.48;79.81;98699.41;2214660;80;21320;-85
2021/04/03 10:15:42;;;;;;;5.28;3.98;;;;;;;3.43;80.15;98703.20;2214658;80;21571;-88
2021/04/03 10:18:47;;;;;;;4.65;4.00;;;;;;;3.43;80.22;98710.14;2214305;80;21186;-84
2021/04/03 10:21:50;;;;;;;10.48;7.40;;;;;;;3.39;80.21;98716.08;2214149;80;21301;-84
2021/04/03 10:24:54;;;;;;;17.37;13.78;;;;;;;3.45;80.86;98722.95;2213961;80;21335;-83
2021/04/03 10:27:56;;;;;;;14.00;10.55;;;;;;;3.51;80.45;98713.36;2206667;80;21646;-85
2021/04/03 10:30:58;;;;;;;9.23;7.58;;;;;;;3.64;80.46;98709.54;2214505;80;21347;-84
2021/04/03 10:33:59;;;;;;;5.67;5.20;;;;;;;3.78;80.26;98726.94;2214518;80;21261;-87
2021/04/03 10:37:01;;;;;;;7.33;5.72;;;;;;;3.92;80.21;98721.33;2214228;80;21285;-81
2021/04/03 10:40:02;;;;;;;6.90;6.20;;;;;;;4.02;79.81;98733.80;2213921;80;21312;-83
2021/04/03 10:43:06;;;;;;;9.15;6.87;;;;;;;4.10;79.64;98727.94;2213755;80;21304;-82
2021/04/03 10:46:11;;;;;;;12.45;9.13;;;;;;;4.06;79.94;98727.41;2213853;80;21164;-86
2021/04/03 10:49:12;;;;;;;9.50;8.38;;;;;;;4.14;79.47;98733.20;2214577;80;21325;-82
2021/04/03 10:52:14;;;;;;;9.58;7.80;;;;;;;4.19;79.19;98735.70;2213834;80;21312;-82
2021/04/03 10:55:16;;;;;;;11.75;7.80;;;;;;;4.20;78.51;98740.41;2214060;80;21166;-86
2021/04/03 10:58:18;;;;;;;9.98;8.25;;;;;;;4.16;79.45;98733.39;2213860;80;21300;-89
2021/04/03 11:01:20;;;;;;;7.75;6.75;;;;;;;4.18;78.30;98728.88;2213860;80;21194;-83
2021/04/03 11:04:21;;;;;;;13.88;10.10;;;;;;;4.32;77.90;98735.42;2213936;80;21276;-82
2021/04/03 11:07:23;;;;;;;13.22;8.25;;;;;;;4.50;77.96;98742.01;2214172;80;21249;-87
2021/04/03 11:10:25;;;;;;;12.03;8.38;;;;;;;4.65;77.58;98741.06;2213898;80;21265;-82
2021/04/03 11:13:27;;;;;;;14.07;9.35;;;;;;;4.75;76.98;98732.77;2214282;80;21284;-87
2021/04/03 11:16:30;;;;;;;11.53;9.03;;;;;;;4.81;75.99;98739.52;2214046;80;21763;-82
2021/04/03 11:19:31;;;;;;;11.68;9.40;;;;;;;4.95;76.62;98738.73;2214229;80;21137;-86
2021/04/03 11:22:34;;;;;;;11.57;8.98;;;;;;;5.08;75.81;98742.61;2214552;80;21138;-85
2021/04/03 11:25:35;;;;;;;17.32;10.38;;;;;;;5.26;74.66;98736.66;2214143;80;21137;-81
2021/04/03 11:28:37;;;;;;;11.60;9.18;;;;;;;5.44;74.78;98731.01;2214074;80;21713;-88
2021/04/03 11:31:39;;;;;;;8.80;7.65;;;;;;;5.62;74.03;98734.92;2215762;80;21166;-81
2021/04/03 11:34:41;;;;;;;13.80;10.03;;;;;;;5.82;73.79;98733.81;2215917;80;21142;-83
2021/04/03 11:37:42;;;;;;;12.50;9.73;;;;;;;6.01;73.10;98734.66;2215950;80;21137;-84
2021/04/03 11:40:44;;;;;;;12.35;9.08;;;;;;;6.22;72.11;98727.38;2215186;80;21185;-80
2021/04/03 11:43:46;;;;;;;13.62;9.65;;;;;;;6.44;69.99;98725.56;2213713;80;21618;-79
2021/04/03 11:46:48;;;;;;;13.45;9.70;;;;;;;6.65;70.47;98723.08;2213871;80;21281;-83
2021/04/03 11:49:50;;;;;;;13.18;9.08;;;;;;;6.73;65.93;98730.94;2214181;80;21194;-86
2021/04/03 11:52:52;;;;;;;9.73;7.85;;;;;;;6.85;67.56;98731.80;2185283;80;21130;-82
2021/04/03 11:55:54;;;;;;;8.68;6.87;;;;;;;6.89;65.72;98724.52;2213505;80;21272;-85
2021/04/03 11:58:56;;;;;;;12.80;9.30;;;;;;;6.89;65.15;98725.81;2185314;80;21626;-81
2021/04/03 12:01:58;;;;;;;14.45;12.20;;;;;;;6.95;64.14;98724.36;2213794;80;21308;-86
2021/04/03 12:05:01;;;;;;;34.15;21.87;;;;;;;7.03;66.10;98730.42;2214808;80;21280;-89
2021/04/03 12:08:03;;;;;;;53.02;30.05;;;;;;;7.06;63.65;98722.31;2215041;80;21265;-86
2021/04/03 12:11:05;;;;;;;36.17;20.68;;;;;;;7.12;65.24;98719.55;2215128;80;21327;-83
2021/04/03 12:14:07;;;;;;;10.72;7.95;;;;;;;7.03;64.19;98719.19;2213858;80;21300;-85
2021/04/03 12:17:08;;;;;;;11.12;7.95;;;;;;;6.87;63.90;98718.66;2214539;80;21288;-88
2021/04/03 12:20:10;;;;;;;12.23;9.23;;;;;;;6.64;63.28;98736.58;2214325;80;21614;-84
2021/04/03 12:23:12;;;;;;;12.00;8.45;;;;;;;6.31;64.33;98742.06;2214444;80;21325;-84
2021/04/03 12:26:14;;;;;;;12.93;8.95;;;;;;;6.10;66.27;98744.97;2220130;80;21574;-85
2021/04/03 12:29:15;;;;;;;6.10;5.50;;;;;;;6.04;66.41;98742.17;2228120;80;21685;-82
2021/04/03 12:32:17;;;;;;;10.78;7.60;;;;;;;5.97;65.36;98745.36;2228603;80;21704;-87
2021/04/03 12:35:19;;;;;;;6.37;5.78;;;;;;;5.83;67.30;98756.23;2228429;80;21240;-83
2021/04/03 12:38:21;;;;;;;4.22;3.37;;;;;;;5.56;69.96;98754.98;2228118;80;21295;-84
2021/04/03 12:41:23;;;;;;;4.10;3.77;;;;;;;5.39;68.31;98727.57;2228444;80;21114;-90
2021/04/03 12:44:26;;;;;;;6.53;5.05;;;;;;;5.39;68.38;98722.38;2228196;80;21277;-83
2021/04/03 12:47:28;;;;;;;9.50;6.40;;;;;;;5.57;67.32;98715.88;2228132;80;21924;-86
2021/04/03 12:50:30;;;;;;;7.83;5.83;;;;;;;5.74;68.43;98719.45;2228669;80;21669;-84
2021/04/03 12:53:32;;;;;;;5.97;5.05;;;;;;;5.88;67.51;98712.92;2229195;80;21169;-87
2021/04/03 12:56:34;;;;;;;5.37;4.80;;;;;;;5.97;66.96;98719.38;2228709;80;21894;-86
2021/04/03 12:59:37;;;;;;;11.43;8.28;;;;;;;6.08;67.11;98718.31;2228537;80;21201;-86
2021/04/03 13:02:39;;;;;;;6.70;5.45;;;;;;;6.20;67.02;98713.20;2228537;80;21304;-86
2021/04/03 13:05:45;;;;;;;4.90;4.40;;;;;;;6.36;66.61;98720.79;2228957;80;21154;-89
2021/04/03 13:08:47;;;;;;;6.35;5.55;;;;;;;6.44;66.37;98714.34;2228297;80;21291;-88
2021/04/03 13:11:49;;;;;;;10.40;5.72;;;;;;;6.46;66.17;98717.11;2228515;80;21581;-90
2021/04/03 13:48:23;;;;;;;5.62;3.45;;;;;;;7.03;59.70;98690.06;2259570;79;22253;-90
2021/04/03 13:51:26;;;;;;;4.72;3.12;;;;;;;7.08;58.67;98691.72;2226510;80;21285;-92
2021/04/03 13:54:29;;;;;;;7.45;3.98;;;;;;;7.18;56.65;98696.80;2226235;80;21116;-84
2021/04/03 13:57:32;;;;;;;9.15;5.55;;;;;;;7.19;57.33;98694.52;2226791;80;21158;-90
2021/04/03 14:00:34;;;;;;;3.50;3.20;;;;;;;7.22;59.16;98698.59;2227172;80;21971;-87
2021/04/03 14:36:56;;;;;;;13.95;7.05;;;;;;;6.08;60.41;98774.69;2272846;77;23029;-83
2021/04/03 14:40:01;;;;;;;7.92;4.83;;;;;;;5.99;61.61;98768.59;2269293;78;21292;-85
2021/04/03 14:43:04;;;;;;;6.05;3.42;;;;;;;5.90;61.60;98756.02;2269735;78;21293;-86
2021/04/03 14:46:08;;;;;;;3.58;3.27;;;;;;;5.77;62.04;98760.74;2240098;78;21178;-86
2021/04/03 14:49:13;;;;;;;5.35;3.75;;;;;;;5.66;61.58;98771.33;2269668;78;21182;-88
2021/04/03 14:52:15;;;;;;;5.78;4.22;;;;;;;5.45;62.08;98766.88;2268800;78;21162;-87
2021/04/03 14:55:17;;;;;;;5.08;3.77;;;;;;;5.35;62.29;98774.73;2269247;78;21741;-85
2021/04/03 14:58:19;;;;;;;2.98;2.77;;;;;;;5.30;62.48;98768.69;2269589;78;21159;-86
2021/04/03 15:01:20;;;;;;;6.00;4.67;;;;;;;5.27;62.11;98768.14;2240132;78;21131;-86
2021/04/03 15:04:23;;;;;;;4.83;3.10;;;;;;;5.32;61.67;98762.05;2269399;78;21604;-83
2021/04/03 15:07:26;;;;;;;3.58;2.85;;;;;;;5.35;60.99;98766.94;2269280;78;21167;-83
2021/04/03 15:10:28;;;;;;;2.62;2.42;;;;;;;5.40;61.47;98760.84;2269080;78;21714;-84
2021/04/03 15:13:31;;;;;;;4.40;2.52;;;;;;;5.45;60.90;98761.69;2269285;78;21714;-83
2021/04/03 15:16:34;;;;;;;3.08;2.17;;;;;;;5.46;59.75;98761.54;2269537;78;21314;-83
2021/04/03 15:19:36;;;;;;;5.42;3.33;;;;;;;5.47;58.17;98760.58;2268969;78;21294;-84
2021/04/03 15:22:38;;;;;;;13.83;6.22;;;;;;;5.44;58.47;98773.86;2268632;78;21162;-83
2021/04/03 15:25:40;;;;;;;7.78;3.75;;;;;;;5.39;57.55;98772.16;2268649;78;21447;-82
2021/04/03 15:28:43;;;;;;;4.50;2.62;;;;;;;5.35;57.55;98777.33;2268724;78;21167;-84
2021/04/03 16:05:13;;;;;;;2.90;2.33;;;;;;;4.98;57.65;98780.77;2284843;76;38401;-86
2021/04/03 16:08:16;;;;;;;4.92;2.90;;;;;;;5.08;57.94;98787.22;2308888;77;21317;-85
2021/04/03 16:11:17;;;;;;;5.05;2.62;;;;;;;5.11;58.00;98792.11;2284618;77;21100;-84
2021/04/03 16:14:27;;;;;;;2.58;1.57;;;;;;;5.15;57.63;98786.98;2282472;77;21107;-84
2021/04/03 16:17:30;;;;;;;3.75;3.25;;;;;;;5.16;56.00;98786.02;2274166;77;21306;-82
2021/04/03 16:20:34;;;;;;;2.55;1.90;;;;;;;5.17;55.36;98795.44;2266839;78;21259;-85
2021/04/03 16:23:36;;;;;;;2.40;1.60;;;;;;;5.12;53.43;98795.04;2235694;78;21588;-84
2021/04/03 16:26:40;;;;;;;2.27;2.08;;;;;;;5.09;53.87;98808.31;2267610;78;21301;-84
2021/04/03 16:29:44;;;;;;;3.12;2.05;;;;;;;5.04;53.55;98804.05;2267619;78;21164;-91
2021/04/03 16:32:46;;;;;;;5.20;2.70;;;;;;;4.99;53.90;98801.86;2267888;78;21294;-85
2021/04/03 16:35:47;;;;;;;7.53;2.85;;;;;;;4.96;54.62;98807.83;2267604;78;21730;-85
2021/04/03 16:38:49;;;;;;;5.25;2.87;;;;;;;4.89;54.61;98798.96;2267301;78;21105;-86
2021/04/03 16:41:54;;;;;;;3.72;2.60;;;;;;;4.84;55.05;98805.37;2267741;78;21315;-85
2021/04/03 16:44:56;;;;;;;4.40;2.70;;;;;;;4.80;56.06;98814.41;2267493;78;21298;-83
2021/04/03 16:47:58;;;;;;;6.40;3.80;;;;;;;4.70;60.30;98832.26;2267485;78;21199;-86
2021/04/03 16:51:04;;;;;;;7.67;4.95;;;;;;;4.61;60.94;98829.20;2266599;78;21168;-85
2021/04/03 16:54:05;;;;;;;5.85;3.95;;;;;;;4.50;61.70;98827.58;2267402;78;21163;-83